createdAt,value
2023-02-22T00:00:26.696Z,98126.50
2023-02-22T00:03:00.181Z,98125.53
2023-02-22T00:05:28.404Z,98127.81
2023-02-22T00:08:00.826Z,98122.06
2023-02-22T00:10:27.897Z,98117.88
2023-02-22T00:12:55.704Z,98121.34
2023-02-22T00:15:27.366Z,98120.09
2023-02-22T00:17:54.890Z,98109.91
2023-02-22T00:20:23.362Z,98117.09
2023-02-22T00:22:51.731Z,98111.88
2023-02-22T00:25:24.191Z,98122.03
2023-02-22T00:27:52.848Z,98121.81
2023-02-22T00:30:26.753Z,98115.59
2023-02-22T00:32:56.306Z,98114.13
2023-02-22T00:35:25.560Z,98118.31
2023-02-22T00:37:54.875Z,98117.31
2023-02-22T00:40:33.147Z,98113.84
2023-02-22T00:43:05.052Z,98112.19
2023-02-22T00:45:33.482Z,98110.72
2023-02-22T00:48:01.125Z,98114.91
2023-02-22T00:50:29.872Z,98115.88
2023-02-22T00:52:57.664Z,98115.44
2023-02-22T00:55:30.699Z,98116.16
2023-02-22T00:57:58.843Z,98111.16
2023-02-22T01:00:31.448Z,98109.41
2023-02-22T01:02:59.654Z,98107.88
2023-02-22T01:05:28.670Z,98108.13
2023-02-22T01:07:57.849Z,98111.84
2023-02-22T01:10:26.431Z,98115.06
2023-02-22T01:12:54.733Z,98098.69
2023-02-22T01:15:23.782Z,98103.19
2023-02-22T01:17:53.490Z,98108.22
2023-02-22T01:20:22.833Z,98098.13
2023-02-22T01:22:53.232Z,98093.41
2023-02-22T01:25:22.888Z,98097.34
2023-02-22T01:27:50.528Z,98088.63
2023-02-22T01:30:21.601Z,98084.91
2023-02-22T01:32:51.070Z,98083.41
2023-02-22T01:35:21.773Z,98082.72
2023-02-22T01:37:48.952Z,98081.97
2023-02-22T01:40:30.908Z,98084.72
2023-02-22T01:43:00.052Z,98079.31
2023-02-22T01:45:30.001Z,98083.06
2023-02-22T01:47:58.723Z,98081.38
2023-02-22T01:50:26.560Z,98086.34
2023-02-22T01:52:53.949Z,98088.13
2023-02-22T01:55:21.142Z,98077.72
2023-02-22T01:57:48.585Z,98077.50
2023-02-22T02:00:21.443Z,98077.44
2023-02-22T02:02:52.602Z,98079.69
2023-02-22T02:05:19.928Z,98066.78
2023-02-22T02:07:47.034Z,98068.03
2023-02-22T02:10:15.466Z,98068.06
2023-02-22T02:12:46.171Z,98062.63
2023-02-22T02:15:25.491Z,98064.38
2023-02-22T02:17:54.014Z,98060.63
2023-02-22T02:20:28.512Z,98052.97
2023-02-22T02:23:27.467Z,98062.84
2023-02-22T02:26:13.432Z,98058.09
2023-02-22T02:29:05.335Z,98049.63
2023-02-22T02:32:00.232Z,98056.00
2023-02-22T02:34:33.348Z,98051.78
2023-02-22T02:37:14.123Z,98055.25
2023-02-22T02:39:59.270Z,98039.09
2023-02-22T02:42:34.964Z,98035.13
2023-02-22T02:45:12.267Z,98045.28
2023-02-22T02:47:49.405Z,98035.13
2023-02-22T02:50:32.856Z,98035.84
2023-02-22T02:53:02.797Z,98038.84
2023-02-22T02:55:31.102Z,98036.88
2023-02-22T02:57:59.353Z,98027.78
2023-02-22T03:00:28.946Z,98031.97
2023-02-22T03:03:07.778Z,98033.44
2023-02-22T03:05:59.642Z,98033.19
2023-02-22T03:09:06.161Z,98031.72
2023-02-22T03:11:51.302Z,98018.66
2023-02-22T03:14:48.320Z,98020.44
2023-02-22T03:17:23.961Z,98017.19
2023-02-22T03:19:58.997Z,98020.69
2023-02-22T03:22:28.253Z,98013.75
2023-02-22T03:25:11.386Z,98016.44
2023-02-22T03:27:44.662Z,98017.41
2023-02-22T03:30:35.894Z,98007.22
2023-02-22T03:33:13.874Z,98013.97
2023-02-22T03:35:45.402Z,98010.47
2023-02-22T03:38:14.114Z,98011.72
2023-02-22T03:40:44.538Z,98012.47
2023-02-22T03:43:16.234Z,98017.41
2023-02-22T03:45:45.281Z,98011.72
2023-02-22T03:48:20.591Z,98004.31
2023-02-22T03:50:48.799Z,98005.38
2023-02-22T03:53:18.559Z,98014.84
2023-02-22T03:55:51.699Z,98007.69
2023-02-22T03:58:21.092Z,98015.56
2023-02-22T04:00:53.016Z,98009.63
2023-02-22T04:03:23.436Z,98018.50
2023-02-22T04:05:50.505Z,98023.19
2023-02-22T04:08:17.686Z,98014.97
2023-02-22T04:10:44.784Z,98014.22
2023-02-22T04:13:11.901Z,98012.50
2023-02-22T04:15:39.153Z,98007.84
2023-02-22T04:18:06.217Z,98005.16
2023-02-22T04:20:34.875Z,98019.28
2023-02-22T04:23:02.023Z,98018.06
2023-02-22T04:25:29.382Z,98019.09
2023-02-22T04:27:56.436Z,98016.81
2023-02-22T04:30:23.556Z,98017.06
2023-02-22T04:32:50.628Z,98010.09
2023-02-22T04:35:17.779Z,98009.31
2023-02-22T04:37:44.819Z,98007.84
2023-02-22T04:40:11.983Z,98000.63
2023-02-22T04:42:39.518Z,98001.88
2023-02-22T04:45:08.410Z,97996.69
2023-02-22T04:47:36.635Z,98003.59
2023-02-22T04:50:07.873Z,97996.19
2023-02-22T04:52:34.972Z,97994.94
2023-02-22T04:55:02.702Z,97997.91
2023-02-22T04:57:30.198Z,97999.16
2023-02-22T04:59:57.333Z,97995.91
2023-02-22T05:02:24.466Z,97999.09
2023-02-22T05:04:52.095Z,97992.41
2023-02-22T05:07:19.210Z,97990.41
2023-02-22T05:09:46.279Z,97990.66
2023-02-22T05:12:13.346Z,97987.69
2023-02-22T05:14:41.604Z,97983.72
2023-02-22T05:17:09.020Z,97985.75
2023-02-22T05:19:36.079Z,97986.47
2023-02-22T05:22:03.652Z,97979.78
2023-02-22T05:24:30.796Z,97978.53
2023-02-22T05:26:57.853Z,97976.53
2023-02-22T05:29:24.966Z,97977.03
2023-02-22T05:31:52.298Z,97973.81
2023-02-22T05:34:19.402Z,97978.78
2023-02-22T05:36:46.542Z,97976.03
2023-02-22T05:39:13.739Z,97975.56
2023-02-22T05:41:40.873Z,97981.31
2023-02-22T05:44:07.966Z,97973.88
2023-02-22T05:46:35.179Z,97975.16
2023-02-22T05:49:02.358Z,97969.69
2023-02-22T05:51:29.507Z,97976.41
2023-02-22T05:53:56.560Z,97977.16
2023-02-22T05:56:28.715Z,97979.59
2023-02-22T05:58:56.998Z,97974.63
2023-02-22T06:01:24.300Z,97964.25
2023-02-22T06:03:53.365Z,97972.94
2023-02-22T06:06:22.332Z,97970.94
2023-02-22T06:08:49.728Z,97976.13
2023-02-22T06:11:17.324Z,97974.09
2023-02-22T06:13:52.685Z,97971.59
2023-02-22T06:16:21.238Z,97976.53
2023-02-22T06:18:48.842Z,97974.53
2023-02-22T06:21:17.944Z,97970.81
2023-02-22T06:23:45.157Z,97976.50
2023-02-22T06:26:12.197Z,97979.22
2023-02-22T06:28:39.777Z,97980.19
2023-02-22T06:31:06.928Z,97971.06
2023-02-22T06:33:34.172Z,97991.41
2023-02-22T06:36:01.498Z,97987.69
2023-02-22T06:38:28.592Z,97988.44
2023-02-22T06:40:55.856Z,97986.44
2023-02-22T06:43:27.154Z,97986.66
2023-02-22T06:45:54.249Z,97985.94
2023-02-22T06:48:21.315Z,97993.59
2023-02-22T06:50:48.407Z,97992.59
2023-02-22T06:53:15.716Z,97994.31
2023-02-22T06:55:42.776Z,97992.53
2023-02-22T06:58:09.862Z,97993.28
2023-02-22T07:00:36.917Z,97989.06
2023-02-22T07:03:04.844Z,97989.03
2023-02-22T07:05:32.222Z,97996.69
2023-02-22T07:08:05.268Z,97999.66
2023-02-22T07:10:33.915Z,97997.41
2023-02-22T07:13:02.055Z,97998.34
2023-02-22T07:15:30.502Z,97994.13
2023-02-22T07:17:57.744Z,98002.00
2023-02-22T07:20:26.326Z,97999.28
2023-02-22T07:22:53.732Z,97996.78
2023-02-22T07:25:21.510Z,98002.75
2023-02-22T07:27:49.441Z,97998.03
2023-02-22T07:30:25.839Z,98004.47
2023-02-22T07:32:54.800Z,98008.41
2023-02-22T07:35:24.748Z,98000.44
2023-02-22T07:37:54.062Z,98004.91
2023-02-22T07:40:23.717Z,97998.19
2023-02-22T07:42:59.705Z,97988.97
2023-02-22T07:45:29.546Z,97999.88
2023-02-22T07:47:57.751Z,98003.34
2023-02-22T07:50:26.765Z,98007.13
2023-02-22T07:52:56.653Z,98006.38
2023-02-22T07:55:26.772Z,97998.63
2023-02-22T07:57:56.944Z,97992.16
2023-02-22T08:00:32.677Z,98003.53
2023-02-22T08:03:02.344Z,97997.53
2023-02-22T08:05:30.928Z,98000.53
2023-02-22T08:07:58.858Z,97996.06
2023-02-22T08:10:26.818Z,98000.00
2023-02-22T08:12:56.147Z,97991.31
2023-02-22T08:15:28.905Z,97999.50
2023-02-22T08:17:58.050Z,97994.19
2023-02-22T08:20:26.257Z,97999.63
2023-02-22T08:22:54.544Z,97999.53
2023-02-22T08:25:25.386Z,97998.97
2023-02-22T08:27:54.070Z,98000.69
2023-02-22T08:30:23.447Z,97999.84
2023-02-22T08:32:51.223Z,98001.78
2023-02-22T08:35:20.339Z,98003.47
2023-02-22T08:37:53.092Z,97988.34
2023-02-22T08:40:24.573Z,97994.03
2023-02-22T08:42:52.398Z,98000.00
2023-02-22T08:45:20.018Z,97993.38
2023-02-22T08:47:47.649Z,97990.13
2023-02-22T08:50:26.773Z,97991.59
2023-02-22T08:52:56.270Z,97989.38
2023-02-22T08:55:25.381Z,97988.81
2023-02-22T08:57:53.757Z,97986.00
2023-02-22T09:00:24.757Z,97985.72
2023-02-22T09:02:52.761Z,97982.47
2023-02-22T09:05:20.418Z,97992.88
2023-02-22T09:07:48.681Z,97984.38
2023-02-22T09:10:18.415Z,97989.97
2023-02-22T09:12:45.663Z,97982.75
2023-02-22T09:15:13.000Z,97988.97
2023-02-22T09:17:40.264Z,97993.59
2023-02-22T09:20:10.306Z,97992.50
2023-02-22T09:22:37.623Z,97991.16
2023-02-22T09:25:16.253Z,97990.88
2023-02-22T09:27:47.928Z,97990.28
2023-02-22T09:30:19.991Z,97989.66
2023-02-22T09:32:47.517Z,97996.81
2023-02-22T09:35:14.854Z,97987.28
2023-02-22T09:37:45.055Z,97980.09
2023-02-22T09:40:24.847Z,97976.00
2023-02-22T09:43:14.939Z,97976.81
2023-02-22T09:46:13.750Z,97978.22
2023-02-22T09:49:13.991Z,97967.91
2023-02-22T09:51:52.663Z,97968.69
2023-02-22T09:54:34.436Z,97966.81
2023-02-22T09:57:05.060Z,97962.94
2023-02-22T09:59:37.618Z,97969.72
2023-02-22T10:02:35.041Z,97966.69
2023-02-22T10:05:10.088Z,97965.31
2023-02-22T10:07:58.856Z,97967.44
2023-02-22T10:10:29.346Z,97961.53
2023-02-22T10:12:59.689Z,97957.97
2023-02-22T10:15:42.648Z,97969.13
2023-02-22T10:18:37.863Z,97962.78
2023-02-22T10:21:24.091Z,97964.28
2023-02-22T10:23:56.818Z,97958.50
2023-02-22T10:26:26.994Z,97957.84
2023-02-22T10:29:01.952Z,97953.63
2023-02-22T10:31:33.775Z,97955.66
2023-02-22T10:34:09.530Z,97952.69
2023-02-22T10:36:39.106Z,97952.81
2023-02-22T10:39:20.705Z,97944.78
2023-02-22T10:41:52.587Z,97948.59
2023-02-22T10:44:19.794Z,97944.16
2023-02-22T10:46:47.382Z,97939.19
2023-02-22T10:49:21.496Z,97939.09
2023-02-22T10:51:59.728Z,97932.75
2023-02-22T10:54:32.316Z,97930.94
2023-02-22T10:57:00.637Z,97943.38
2023-02-22T10:59:30.656Z,97930.41
2023-02-22T11:01:57.758Z,97933.88
2023-02-22T11:04:25.064Z,97933.34
2023-02-22T11:07:01.269Z,97932.31
2023-02-22T11:09:29.053Z,97928.31
2023-02-22T11:12:18.423Z,97931.13
2023-02-22T11:14:45.567Z,97923.84
2023-02-22T11:17:17.592Z,97923.00
2023-02-22T11:19:49.219Z,97919.38
2023-02-22T11:22:22.652Z,97915.22
2023-02-22T11:24:59.928Z,97919.38
2023-02-22T11:27:31.988Z,97906.84
2023-02-22T11:30:27.434Z,97910.47
2023-02-22T11:32:57.703Z,97902.31
2023-02-22T11:35:53.875Z,97906.66
2023-02-22T11:38:25.444Z,97898.88
2023-02-22T11:41:07.151Z,97900.16
2023-02-22T11:43:34.608Z,97894.47
2023-02-22T11:46:08.646Z,97883.81
2023-02-22T11:48:39.078Z,97886.22
2023-02-22T11:51:14.781Z,97883.59
2023-02-22T11:53:53.492Z,97878.28
2023-02-22T11:56:45.138Z,97873.34
2023-02-22T11:59:34.437Z,97868.97
2023-02-22T12:02:18.518Z,97870.09
2023-02-22T12:05:12.907Z,97871.97
2023-02-22T12:07:56.517Z,97875.66
2023-02-22T12:10:41.602Z,97866.91
2023-02-22T12:13:46.100Z,97854.16
2023-02-22T12:16:35.024Z,97859.06
2023-02-22T12:19:14.242Z,97859.09
2023-02-22T12:21:44.162Z,97856.53
2023-02-22T12:24:24.567Z,97854.50
2023-02-22T12:26:59.504Z,97855.06
2023-02-22T12:29:31.496Z,97852.69
2023-02-22T12:32:05.067Z,97853.41
2023-02-22T12:34:41.834Z,97851.34
2023-02-22T12:37:18.187Z,97850.44
2023-02-22T12:39:56.728Z,97858.88
2023-02-22T12:42:47.714Z,97848.63
2023-02-22T12:45:27.088Z,97852.28
2023-02-22T12:48:02.074Z,97844.03
2023-02-22T12:50:34.385Z,97843.69
2023-02-22T12:53:14.679Z,97848.09
2023-02-22T12:55:46.156Z,97847.75
2023-02-22T12:58:28.663Z,97841.75
2023-02-22T13:01:04.149Z,97844.16
2023-02-22T13:03:41.647Z,97832.47
2023-02-22T13:06:35.086Z,97834.28
2023-02-22T13:09:32.261Z,97837.81
2023-02-22T13:12:06.931Z,97834.84
2023-02-22T13:14:49.935Z,97831.75
2023-02-22T13:17:44.615Z,97830.28
2023-02-22T13:20:22.019Z,97831.22
2023-02-22T13:23:45.539Z,97829.00
2023-02-22T13:26:25.055Z,97828.28
2023-02-22T13:29:00.106Z,97824.25
2023-02-22T13:31:44.409Z,97833.41
2023-02-22T13:34:27.495Z,97825.34
2023-02-22T13:37:08.425Z,97824.81
2023-02-22T13:40:13.692Z,97821.88
2023-02-22T13:42:58.363Z,97823.53
2023-02-22T13:45:39.371Z,97822.78
2023-02-22T13:48:25.333Z,97821.13
2023-02-22T13:51:04.515Z,97818.16
2023-02-22T13:53:54.589Z,97820.00
2023-02-22T13:56:23.642Z,97812.31
2023-02-22T13:59:02.541Z,97809.00
2023-02-22T14:01:47.754Z,97813.38
2023-02-22T14:04:34.203Z,97815.19
2023-02-22T14:07:25.925Z,97808.06
2023-02-22T14:09:57.494Z,97808.59
2023-02-22T14:12:30.729Z,97808.38
2023-02-22T14:15:29.946Z,97796.13
2023-02-22T14:17:57.298Z,97807.84
2023-02-22T14:20:31.382Z,97803.63
2023-02-22T14:23:37.048Z,97798.31
2023-02-22T14:26:12.992Z,97799.81
2023-02-22T14:28:50.297Z,97793.56
2023-02-22T14:31:34.884Z,97794.66
2023-02-22T14:34:11.223Z,97792.44
2023-02-22T14:36:56.653Z,97793.19
2023-02-22T14:39:33.299Z,97797.22
2023-02-22T14:42:07.589Z,97795.75
2023-02-22T14:44:40.061Z,97791.69
2023-02-22T14:47:09.823Z,97792.59
2023-02-22T14:49:42.704Z,97791.28
2023-02-22T14:52:20.190Z,97783.53
2023-02-22T14:54:54.261Z,97783.50
2023-02-22T14:57:32.167Z,97786.97
2023-02-22T15:00:20.025Z,97777.97
2023-02-22T15:02:48.909Z,97777.59
2023-02-22T15:05:21.411Z,97779.44
2023-02-22T15:07:57.248Z,97780.72
2023-02-22T15:10:30.993Z,97775.56
2023-02-22T15:13:10.566Z,97780.69
2023-02-22T15:15:46.028Z,97784.59
2023-02-22T15:18:39.282Z,97786.31
2023-02-22T15:21:12.139Z,97772.81
2023-02-22T15:23:46.130Z,97773.34
2023-02-22T15:26:30.039Z,97769.84
2023-02-22T15:28:58.829Z,97774.28
2023-02-22T15:31:33.591Z,97774.28
2023-02-22T15:34:16.193Z,97772.59
2023-02-22T15:36:46.419Z,97765.28
2023-02-22T15:39:34.367Z,97763.41
2023-02-22T15:42:19.278Z,97768.97
2023-02-22T15:44:48.076Z,97771.38
2023-02-22T15:47:27.416Z,97758.59
2023-02-22T15:50:21.044Z,97764.81
2023-02-22T15:52:54.541Z,97771.56
2023-02-22T15:55:34.474Z,97766.22
2023-02-22T15:58:23.059Z,97765.84
2023-02-22T16:01:05.102Z,97765.97
2023-02-22T16:03:54.649Z,97763.22
2023-02-22T16:06:33.480Z,97771.63
2023-02-22T16:09:07.683Z,97770.22
2023-02-22T16:11:44.194Z,97768.94
2023-02-22T16:14:31.713Z,97765.66
2023-02-22T16:17:30.477Z,97762.19
2023-02-22T16:20:02.130Z,97762.00
2023-02-22T16:22:34.437Z,97767.94
2023-02-22T16:25:27.314Z,97771.56
2023-02-22T16:28:03.185Z,97761.78
2023-02-22T16:30:32.640Z,97768.19
2023-02-22T16:33:02.714Z,97773.91
2023-02-22T16:35:29.797Z,97777.56
2023-02-22T16:38:17.188Z,97768.41
2023-02-22T16:40:50.366Z,97766.53
2023-02-22T16:43:19.891Z,97764.47
2023-02-22T16:45:47.350Z,97769.53
2023-02-22T16:48:20.859Z,97768.00
2023-02-22T16:50:50.946Z,97766.00
2023-02-22T16:53:20.214Z,97768.31
2023-02-22T16:55:48.101Z,97764.97
2023-02-22T16:58:16.494Z,97768.34
2023-02-22T17:00:44.137Z,97772.69
2023-02-22T17:03:15.606Z,97772.59
2023-02-22T17:05:43.226Z,97767.78
2023-02-22T17:08:10.305Z,97766.41
2023-02-22T17:10:37.485Z,97772.03
2023-02-22T17:13:22.207Z,97767.38
2023-02-22T17:15:50.152Z,97768.84
2023-02-22T17:18:23.042Z,97770.53
2023-02-22T17:20:51.924Z,97767.72
2023-02-22T17:23:19.256Z,97767.59
2023-02-22T17:25:53.462Z,97763.53
2023-02-22T17:28:21.680Z,97761.91
2023-02-22T17:30:49.001Z,97755.09
2023-02-22T17:33:18.566Z,97756.38
2023-02-22T17:35:46.938Z,97763.19
2023-02-22T17:38:18.472Z,97762.56
2023-02-22T17:40:54.937Z,97765.81
2023-02-22T17:43:22.909Z,97769.56
2023-02-22T17:45:50.047Z,97763.69
2023-02-22T17:48:18.269Z,97762.22
2023-02-22T17:50:46.692Z,97766.53
2023-02-22T17:53:14.193Z,97763.13
2023-02-22T17:55:42.180Z,97763.97
2023-02-22T17:58:14.692Z,97765.00
2023-02-22T18:00:45.792Z,97762.59
2023-02-22T18:03:16.364Z,97760.19
2023-02-22T18:05:48.811Z,97762.47
2023-02-22T18:08:16.937Z,97763.00
2023-02-22T18:10:44.716Z,97765.94
2023-02-22T18:13:17.889Z,97757.22
2023-02-22T18:15:46.244Z,97758.28
2023-02-22T18:18:13.451Z,97754.34
2023-02-22T18:20:44.745Z,97753.63
2023-02-22T18:23:14.930Z,97754.47
2023-02-22T18:26:08.959Z,97755.19
2023-02-22T18:28:37.510Z,97759.41
2023-02-22T18:31:15.454Z,97754.69
2023-02-22T18:33:49.214Z,97753.41
2023-02-22T18:36:22.510Z,97758.66
2023-02-22T18:38:51.751Z,97752.47
2023-02-22T18:41:19.959Z,97747.53
2023-02-22T18:43:47.449Z,97747.00
2023-02-22T18:46:18.158Z,97748.28
2023-02-22T18:48:46.578Z,97747.75
2023-02-22T18:51:15.973Z,97751.00
2023-02-22T18:53:59.944Z,97754.22
2023-02-22T18:56:30.128Z,97745.81
2023-02-22T18:58:59.946Z,97739.63
2023-02-22T19:01:27.856Z,97745.63
2023-02-22T19:03:55.660Z,97741.84
2023-02-22T19:06:22.809Z,97734.38
2023-02-22T19:08:51.029Z,97734.16
2023-02-22T19:11:21.829Z,97726.69
2023-02-22T19:13:53.159Z,97735.22
2023-02-22T19:16:22.272Z,97724.81
2023-02-22T19:18:52.327Z,97737.75
2023-02-22T19:21:20.317Z,97721.84
2023-02-22T19:23:48.573Z,97720.38
2023-02-22T19:26:19.112Z,97729.09
2023-02-22T19:28:47.456Z,97727.31
2023-02-22T19:31:19.348Z,97730.34
2023-02-22T19:33:48.308Z,97724.97
2023-02-22T19:36:15.793Z,97722.34
2023-02-22T19:38:43.550Z,97725.81
2023-02-22T19:41:18.089Z,97720.13
2023-02-22T19:43:46.948Z,97725.56
2023-02-22T19:46:17.722Z,97726.69
2023-02-22T19:48:45.422Z,97726.94
2023-02-22T19:51:14.498Z,97721.47
2023-02-22T19:53:42.969Z,97730.41
2023-02-22T19:56:12.753Z,97718.09
2023-02-22T19:58:40.607Z,97721.34
2023-02-22T20:01:14.532Z,97725.09
2023-02-22T20:03:44.762Z,97720.88
2023-02-22T20:06:12.285Z,97723.09
2023-02-22T20:08:42.159Z,97720.69
2023-02-22T20:11:10.534Z,97719.41
2023-02-22T20:13:38.469Z,97716.91
2023-02-22T20:16:06.164Z,97715.66
2023-02-22T20:18:33.506Z,97719.09
2023-02-22T20:21:00.715Z,97723.84
2023-02-22T20:23:27.842Z,97717.94
2023-02-22T20:25:56.095Z,97721.69
2023-02-22T20:28:24.206Z,97724.44
2023-02-22T20:30:52.088Z,97720.00
2023-02-22T20:33:20.456Z,97722.75
2023-02-22T20:35:48.108Z,97717.50
2023-02-22T20:38:15.360Z,97718.97
2023-02-22T20:40:43.073Z,97717.00
2023-02-22T20:43:10.246Z,97721.69
2023-02-22T20:45:37.858Z,97723.19
2023-02-22T20:48:05.626Z,97718.03
2023-02-22T20:50:34.984Z,97715.75
2023-02-22T20:53:02.091Z,97717.50
2023-02-22T20:55:29.173Z,97717.28
2023-02-22T20:57:56.320Z,97722.81
2023-02-22T21:00:23.498Z,97708.97
2023-02-22T21:02:50.666Z,97712.94
2023-02-22T21:05:17.743Z,97715.16
2023-02-22T21:07:44.873Z,97719.88
2023-02-22T21:10:11.942Z,97719.13
2023-02-22T21:12:39.034Z,97713.16
2023-02-22T21:15:07.534Z,97716.16
2023-02-22T21:17:36.769Z,97712.19
2023-02-22T21:20:10.741Z,97715.72
2023-02-22T21:22:39.281Z,97716.97
2023-02-22T21:25:06.464Z,97712.97
2023-02-22T21:27:33.549Z,97717.63
2023-02-22T21:30:00.785Z,97712.19
2023-02-22T21:32:27.880Z,97718.69
2023-02-22T21:34:55.126Z,97717.94
2023-02-22T21:37:22.173Z,97713.97
2023-02-22T21:39:49.370Z,97716.41
2023-02-22T21:42:16.460Z,97709.69
2023-02-22T21:44:43.498Z,97711.16
2023-02-22T21:47:11.111Z,97712.41
2023-02-22T21:49:38.187Z,97710.22
2023-02-22T21:52:07.639Z,97706.44
2023-02-22T21:54:34.885Z,97718.09
2023-02-22T21:57:01.945Z,97706.97
2023-02-22T21:59:29.343Z,97709.91
2023-02-22T22:01:56.714Z,97712.41
2023-02-22T22:04:27.610Z,97710.94
2023-02-22T22:06:56.892Z,97715.94
2023-02-22T22:09:25.380Z,97712.50
2023-02-22T22:11:58.206Z,97706.28
2023-02-22T22:14:26.154Z,97714.97
2023-02-22T22:16:58.145Z,97712.97
2023-02-22T22:19:29.990Z,97706.56
2023-02-22T22:21:58.105Z,97706.16
2023-02-22T22:24:25.750Z,97709.69
2023-02-22T22:26:55.452Z,97704.97
2023-02-22T22:29:24.312Z,97707.47
2023-02-22T22:31:52.351Z,97696.31
2023-02-22T22:34:19.509Z,97691.38
2023-02-22T22:36:46.804Z,97704.06
2023-02-22T22:39:13.961Z,97701.66
2023-02-22T22:41:42.719Z,97702.59
2023-02-22T22:44:11.132Z,97703.88
2023-02-22T22:46:41.192Z,97703.34
2023-02-22T22:49:12.649Z,97698.41
2023-02-22T22:51:43.341Z,97696.63
2023-02-22T22:54:10.552Z,97702.81
2023-02-22T22:56:38.777Z,97700.63
2023-02-22T22:59:07.872Z,97690.97
2023-02-22T23:01:40.851Z,97701.88
2023-02-22T23:04:11.010Z,97709.75
2023-02-22T23:06:40.976Z,97705.47
2023-02-22T23:09:14.363Z,97699.56
2023-02-22T23:11:46.354Z,97707.69
2023-02-22T23:14:15.578Z,97693.69
2023-02-22T23:16:42.992Z,97700.09
2023-02-22T23:19:10.077Z,97700.16
2023-02-22T23:21:37.552Z,97695.44
2023-02-22T23:24:08.728Z,97700.41
2023-02-22T23:26:35.975Z,97689.50
2023-02-22T23:29:03.708Z,97698.94
2023-02-22T23:31:32.050Z,97705.56
2023-02-22T23:33:59.597Z,97696.09
2023-02-22T23:36:26.926Z,97706.50
2023-02-22T23:38:54.541Z,97701.13
2023-02-22T23:41:24.983Z,97692.72
2023-02-22T23:43:52.295Z,97695.53
2023-02-22T23:46:19.448Z,97696.84
2023-02-22T23:48:54.511Z,97700.09
2023-02-22T23:51:25.579Z,97693.91
2023-02-22T23:53:55.600Z,97695.81
2023-02-22T23:56:26.644Z,97695.81
2023-02-22T23:58:57.081Z,97693.59
